Spring's Hourly Summary for Friday, May 11, 2018
Hour Temp
(f)
RH
(%)
Solar Rad.
(MJ/m2)
Rainfall
(in)
Wind
(mph)
5/11/2018 12:00 AM 74 65 0 0 3.29
5/11/2018 1:00 AM 73 76 0 0 2.88
5/11/2018 2:00 AM 72 83 0 0 1.19
5/11/2018 3:00 AM 71 88 0 0 1.71
5/11/2018 4:00 AM 71 91 0 0 0.98
5/11/2018 5:00 AM 70 92 0 0 1.19
5/11/2018 6:00 AM 71 90 0 0 3.27
5/11/2018 7:00 AM 71 90 0.02 0 2.38
5/11/2018 8:00 AM 72 84 0.45 0 2.03
5/11/2018 9:00 AM 75 76 1.02 0 6.82
5/11/2018 10:00 AM 79 62 2.17 0 9.32
5/11/2018 11:00 AM 82 54 2.37 0 8.28
5/11/2018 12:00 PM 82 41 1.89 0 8.26
5/11/2018 1:00 PM 85 40 3.36 0 9.49
5/11/2018 2:00 PM 86 39 3.02 0 8.87
5/11/2018 3:00 PM 87 38 3.07 0 8.64
5/11/2018 4:00 PM 87 38 2.49 0 9.52
5/11/2018 5:00 PM 86 39 2.07 0 9.79
5/11/2018 6:00 PM 86 42 1.5 0 10.02
5/11/2018 7:00 PM 85 46 1.12 0 9.3
5/11/2018 8:00 PM 82 51 0.24 0 8.6
5/11/2018 9:00 PM 80 58 0.01 0 7.23
5/11/2018 10:00 PM 78 66 0 0 5.98
5/11/2018 11:00 PM 77 73 0 0 6.11
Data Summary 78 63 24.80 0.00 6.05